Time;durP1;ratioP1;P1;durP2;ratioP2;P2;SDS_P1;SDS_P2;PMS_P1;PMS_P2;Temp;Humidity;BMP_temperature;BMP_pressure;BME280_temperature;BME280_humidity;BME280_pressure;Samples;Min_cycle;Max_cycle;Signal;HPM_P1;HPM_P2
2021/11/03 00:00:09;;;;;;;1.95;1.85;;;17.80;64.40;;;;;;5054040;28;20513;-64
2021/11/03 00:02:34;;;;;;;2.67;2.28;;;17.80;64.30;;;;;;5053692;28;20201;-62
2021/11/03 00:05:00;;;;;;;2.63;2.20;;;17.70;64.20;;;;;;5053214;28;20206;-62
2021/11/03 00:07:29;;;;;;;2.33;2.08;;;17.70;64.30;;;;;;5054041;28;20241;-61
2021/11/03 00:09:57;;;;;;;2.45;1.90;;;17.70;64.30;;;;;;5054043;28;20206;-62
2021/11/03 00:12:22;;;;;;;3.10;2.38;;;17.70;64.30;;;;;;5053136;28;20187;-62
2021/11/03 00:14:48;;;;;;;2.50;1.88;;;17.70;64.30;;;;;;5052153;28;20175;-65
2021/11/03 00:17:13;;;;;;;2.17;2.00;;;17.70;64.30;;;;;;5052980;28;20669;-64
2021/11/03 00:19:39;;;;;;;2.50;2.30;;;17.70;64.30;;;;;;5053193;28;20171;-64
2021/11/03 00:22:04;;;;;;;2.65;2.17;;;17.70;64.20;;;;;;5053549;28;20515;-64
2021/11/03 00:24:34;;;;;;;1.70;1.60;;;17.70;64.20;;;;;;5052610;28;20176;-63
2021/11/03 00:26:59;;;;;;;2.58;1.95;;;17.70;64.30;;;;;;5053564;28;20535;-63
2021/11/03 00:29:24;;;;;;;2.45;1.88;;;17.60;64.20;;;;;;5053608;28;20186;-64
2021/11/03 00:31:50;;;;;;;1.77;1.67;;;17.60;64.30;;;;;;5052486;28;20198;-62
2021/11/03 00:34:15;;;;;;;2.00;1.90;;;17.60;64.20;;;;;;5053378;28;20182;-63
2021/11/03 00:36:41;;;;;;;2.35;2.15;;;17.60;64.10;;;;;;5053353;28;20577;-61
2021/11/03 00:39:06;;;;;;;2.38;2.17;;;17.60;64.20;;;;;;5052653;28;20175;-62
2021/11/03 00:41:32;;;;;;;2.00;1.83;;;17.60;64.20;;;;;;5052950;28;20614;-62
2021/11/03 00:43:57;;;;;;;3.03;2.15;;;17.60;64.20;;;;;;5053048;28;20231;-63
2021/11/03 00:46:23;;;;;;;2.60;2.00;;;17.60;64.20;;;;;;5052487;28;20296;-62
2021/11/03 00:48:48;;;;;;;2.35;2.10;;;17.60;64.20;;;;;;5052798;28;20263;-61
2021/11/03 00:51:14;;;;;;;2.08;1.98;;;17.60;64.20;;;;;;5053216;28;20262;-62
2021/11/03 00:53:40;;;;;;;2.08;1.85;;;17.60;64.20;;;;;;5052140;28;20513;-63
2021/11/03 00:56:05;;;;;;;2.67;2.15;;;17.60;65.00;;;;;;5052867;28;20179;-64
2021/11/03 00:58:31;;;;;;;2.05;1.85;;;17.60;64.20;;;;;;5052099;28;20267;-63
2021/11/03 01:00:56;;;;;;;2.17;2.00;;;17.50;64.20;;;;;;5052155;28;20587;-62
2021/11/03 01:03:22;;;;;;;2.40;2.20;;;17.60;64.20;;;;;;5052785;28;20298;-61
2021/11/03 01:05:47;;;;;;;3.25;2.40;;;17.50;64.20;;;;;;5052668;28;20661;-61
2021/11/03 01:08:13;;;;;;;3.38;2.33;;;17.50;64.10;;;;;;5052114;28;20202;-61
2021/11/03 01:10:39;;;;;;;2.55;2.35;;;17.50;64.00;;;;;;5052255;28;20175;-62
2021/11/03 01:13:05;;;;;;;2.30;2.10;;;17.50;64.20;;;;;;5052810;28;20244;-64
2021/11/03 01:15:31;;;;;;;2.58;2.38;;;17.50;64.20;;;;;;5051692;28;20171;-64
2021/11/03 01:17:57;;;;;;;3.75;2.40;;;17.50;64.10;;;;;;5052521;28;20544;-65
2021/11/03 01:20:23;;;;;;;2.40;2.08;;;17.50;64.10;;;;;;5052575;28;20578;-64
2021/11/03 01:22:48;;;;;;;2.53;2.33;;;17.40;64.10;;;;;;5052122;28;20200;-63
2021/11/03 01:25:17;;;;;;;1.92;1.83;;;17.50;64.20;;;;;;5052390;28;20615;-63
2021/11/03 01:27:43;;;;;;;2.50;2.30;;;17.40;64.10;;;;;;5051464;28;20229;-63
2021/11/03 01:30:09;;;;;;;2.47;2.30;;;17.40;64.10;;;;;;5052302;28;20163;-64
2021/11/03 01:32:35;;;;;;;2.45;2.25;;;17.40;64.10;;;;;;5051991;28;20191;-63
2021/11/03 01:35:01;;;;;;;2.65;2.45;;;17.40;64.00;;;;;;5051772;28;20237;-62
2021/11/03 01:37:26;;;;;;;2.35;2.15;;;17.40;64.10;;;;;;5052430;28;20210;-63
2021/11/03 01:39:52;;;;;;;2.35;2.20;;;17.40;64.10;;;;;;5052069;28;20266;-63
2021/11/03 01:42:20;;;;;;;2.45;2.25;;;17.40;64.20;;;;;;5051523;28;20175;-63
2021/11/03 01:44:46;;;;;;;2.38;2.17;;;17.40;64.20;;;;;;5051675;28;20229;-62
2021/11/03 01:47:47;;;;;;;2.40;2.20;;;17.40;64.20;;;;;;5051971;28;20211;-62
2021/11/03 01:50:27;;;;;;;2.70;2.50;;;17.40;64.10;;;;;;5051495;28;20609;-63
2021/11/03 01:53:17;;;;;;;2.80;2.60;;;17.40;64.10;;;;;;5051681;28;20173;-63
2021/11/03 01:55:54;;;;;;;2.58;2.38;;;17.40;64.10;;;;;;5051168;28;20248;-63
2021/11/03 01:58:23;;;;;;;2.65;2.45;;;17.40;64.10;;;;;;5050862;28;20175;-64
2021/11/03 02:00:50;;;;;;;3.25;2.70;;;17.40;64.10;;;;;;5050520;28;20217;-62
2021/11/03 02:03:18;;;;;;;2.55;2.35;;;17.40;64.10;;;;;;5049871;28;20205;-62
2021/11/03 02:05:58;;;;;;;2.50;2.30;;;17.30;64.10;;;;;;5050183;28;20175;-62
2021/11/03 02:08:23;;;;;;;2.35;2.22;;;17.30;64.10;;;;;;5050733;28;20195;-61
2021/11/03 02:10:49;;;;;;;2.70;2.50;;;17.30;64.00;;;;;;5050701;28;20583;-63
2021/11/03 02:13:14;;;;;;;2.42;2.22;;;17.30;64.10;;;;;;5051747;28;20179;-63
2021/11/03 02:15:40;;;;;;;2.30;2.20;;;17.30;64.10;;;;;;5051524;28;20237;-63
2021/11/03 02:18:06;;;;;;;2.60;2.40;;;17.30;64.10;;;;;;5049660;28;20205;-63
2021/11/03 02:20:31;;;;;;;2.78;2.55;;;17.30;64.10;;;;;;5050061;28;20567;-63
2021/11/03 02:23:17;;;;;;;3.10;2.90;;;17.30;64.00;;;;;;5051641;28;20237;-63
2021/11/03 02:25:46;;;;;;;2.38;2.20;;;17.30;64.00;;;;;;5049268;28;20493;-63
2021/11/03 02:28:11;;;;;;;3.03;2.83;;;17.30;64.10;;;;;;5050404;28;20191;-64
2021/11/03 02:30:37;;;;;;;2.88;2.67;;;17.20;64.00;;;;;;5049916;28;20229;-63
2021/11/03 02:33:08;;;;;;;2.75;2.55;;;17.30;64.10;;;;;;5050658;28;20217;-62
2021/11/03 02:35:35;;;;;;;2.95;2.75;;;17.20;64.00;;;;;;5051459;28;20179;-63
2021/11/03 02:38:01;;;;;;;2.92;2.72;;;17.30;64.10;;;;;;5051157;28;20488;-63
2021/11/03 02:40:37;;;;;;;2.72;2.53;;;17.20;64.00;;;;;;5051576;28;20685;-62
2021/11/03 02:43:24;;;;;;;2.78;2.58;;;17.20;64.00;;;;;;5051317;28;20171;-60
2021/11/03 02:45:53;;;;;;;3.38;2.90;;;17.20;64.00;;;;;;5050588;28;20183;-63
2021/11/03 02:48:18;;;;;;;2.88;2.67;;;17.20;64.00;;;;;;5051444;28;20542;-63
2021/11/03 02:51:12;;;;;;;2.92;2.72;;;17.20;64.00;;;;;;5051216;28;20229;-62
2021/11/03 02:53:44;;;;;;;2.80;2.58;;;17.20;64.00;;;;;;5050449;28;20183;-64
2021/11/03 02:56:10;;;;;;;2.28;2.17;;;17.20;64.10;;;;;;5051583;28;20172;-65
2021/11/03 02:58:37;;;;;;;2.65;2.45;;;17.20;64.00;;;;;;5051234;28;20214;-64
2021/11/03 03:01:16;;;;;;;2.90;2.70;;;17.20;64.00;;;;;;5050713;28;20194;-63
2021/11/03 03:03:44;;;;;;;2.90;2.70;;;17.20;64.10;;;;;;5050865;28;20183;-63
2021/11/03 03:06:10;;;;;;;2.53;2.38;;;17.20;64.10;;;;;;5050417;28;20203;-63
2021/11/03 03:08:35;;;;;;;2.90;2.70;;;17.20;64.10;;;;;;5049602;28;20190;-62
2021/11/03 03:11:04;;;;;;;3.15;2.85;;;17.10;64.00;;;;;;5051157;28;20171;-63
2021/11/03 03:13:30;;;;;;;2.70;2.50;;;17.20;64.00;;;;;;5050124;28;20534;-64
2021/11/03 03:15:55;;;;;;;2.75;2.55;;;17.20;64.00;;;;;;5051237;28;20175;-64
2021/11/03 03:18:21;;;;;;;2.70;2.50;;;17.20;64.00;;;;;;5051115;28;20478;-64
2021/11/03 03:20:46;;;;;;;3.00;2.80;;;17.10;63.90;;;;;;5051853;28;20220;-64
2021/11/03 03:23:11;;;;;;;3.03;2.83;;;17.10;64.00;;;;;;5054940;28;20198;-63
2021/11/03 03:25:38;;;;;;;2.85;2.50;;;17.10;64.00;;;;;;5054440;28;20175;-64
2021/11/03 03:28:04;;;;;;;3.17;2.88;;;17.10;64.00;;;;;;5053928;28;20324;-65
2021/11/03 03:30:29;;;;;;;3.00;2.80;;;17.10;64.00;;;;;;5054853;28;20270;-63
2021/11/03 03:32:55;;;;;;;2.85;2.65;;;17.10;64.00;;;;;;5054692;28;20171;-63
2021/11/03 03:35:20;;;;;;;2.78;2.58;;;17.10;64.00;;;;;;5053750;28;20182;-63
2021/11/03 03:37:48;;;;;;;2.80;2.60;;;17.10;64.00;;;;;;5054083;28;20171;-62
2021/11/03 03:40:13;;;;;;;2.45;2.28;;;17.10;64.00;;;;;;5054595;28;20175;-63
2021/11/03 03:42:39;;;;;;;2.80;2.60;;;17.10;63.90;;;;;;5053271;28;20547;-63
2021/11/03 03:45:05;;;;;;;2.63;2.42;;;17.10;64.00;;;;;;5054312;28;20214;-64
2021/11/03 03:47:30;;;;;;;2.47;2.30;;;17.10;64.00;;;;;;5054050;28;20237;-63
2021/11/03 03:49:57;;;;;;;2.85;2.65;;;17.10;64.10;;;;;;5053511;28;20209;-63
2021/11/03 03:52:22;;;;;;;2.70;2.50;;;17.00;64.00;;;;;;5054463;28;20171;-64
2021/11/03 03:54:48;;;;;;;2.70;2.50;;;17.10;64.00;;;;;;5053897;28;20603;-64
2021/11/03 03:57:13;;;;;;;2.38;2.25;;;17.00;63.90;;;;;;5053455;28;20289;-65
2021/11/03 03:59:39;;;;;;;2.72;2.53;;;17.00;63.90;;;;;;5053692;28;20198;-63
2021/11/03 04:02:04;;;;;;;2.80;2.60;;;17.00;63.80;;;;;;5054040;28;20202;-63
2021/11/03 04:04:30;;;;;;;2.90;2.70;;;17.00;63.90;;;;;;5052725;28;20236;-62
2021/11/03 04:06:55;;;;;;;2.60;2.40;;;17.00;63.80;;;;;;5054073;28;20215;-61
2021/11/03 04:09:21;;;;;;;2.70;2.50;;;17.00;63.90;;;;;;5053443;28;20174;-63
2021/11/03 04:11:46;;;;;;;2.90;2.70;;;17.00;63.90;;;;;;5053768;28;20171;-63
2021/11/03 04:14:12;;;;;;;2.70;2.50;;;17.00;63.90;;;;;;5053829;28;20171;-66
2021/11/03 04:16:37;;;;;;;2.30;2.20;;;17.00;63.90;;;;;;5052787;28;20612;-65
2021/11/03 04:19:03;;;;;;;2.90;2.70;;;17.00;63.90;;;;;;5053696;28;20199;-65
2021/11/03 04:21:29;;;;;;;2.60;2.40;;;17.00;64.00;;;;;;5053701;28;20179;-64
2021/11/03 04:23:54;;;;;;;2.88;2.70;;;17.00;63.90;;;;;;5052847;28;20221;-64
2021/11/03 04:26:23;;;;;;;2.53;2.35;;;16.90;63.90;;;;;;5053428;28;20215;-63
2021/11/03 04:28:49;;;;;;;2.83;2.63;;;16.90;64.00;;;;;;5053360;28;20183;-63
2021/11/03 04:31:14;;;;;;;2.42;2.33;;;17.00;64.00;;;;;;5052241;28;20179;-62
2021/11/03 04:33:40;;;;;;;2.78;2.58;;;16.90;64.00;;;;;;5052708;28;20198;-62
2021/11/03 04:36:05;;;;;;;3.22;3.03;;;16.90;63.90;;;;;;5053609;28;20492;-62
2021/11/03 04:38:31;;;;;;;2.78;2.58;;;16.90;63.80;;;;;;5052557;28;20194;-62
2021/11/03 04:40:56;;;;;;;2.97;2.78;;;16.90;63.80;;;;;;5053540;28;20187;-61
2021/11/03 04:43:22;;;;;;;2.80;2.60;;;16.90;63.80;;;;;;5053064;28;20605;-63
2021/11/03 04:45:47;;;;;;;2.78;2.58;;;16.90;63.90;;;;;;5052234;28;20191;-62
2021/11/03 04:48:13;;;;;;;2.53;2.33;;;16.90;63.90;;;;;;5053043;28;20211;-62
2021/11/03 04:50:38;;;;;;;2.50;2.30;;;16.90;63.90;;;;;;5052697;28;20206;-63
2021/11/03 04:53:04;;;;;;;2.40;2.20;;;16.90;64.00;;;;;;5052418;28;20266;-64
2021/11/03 04:55:29;;;;;;;2.50;2.40;;;16.90;64.00;;;;;;5052761;28;20168;-64
2021/11/03 04:57:55;;;;;;;2.70;2.50;;;16.90;64.00;;;;;;5053186;28;20204;-65
2021/11/03 05:00:29;;;;;;;3.00;2.80;;;16.90;64.00;;;;;;5052405;28;20179;-64
2021/11/03 05:02:55;;;;;;;2.88;2.67;;;16.90;63.90;;;;;;5053066;28;20174;-64
2021/11/03 05:05:21;;;;;;;2.80;2.60;;;16.80;63.70;;;;;;5053106;28;20176;-64
2021/11/03 05:07:47;;;;;;;2.80;2.60;;;16.80;63.80;;;;;;5051933;28;20211;-61
2021/11/03 05:10:13;;;;;;;2.70;2.53;;;16.80;63.80;;;;;;5052860;28;20297;-63
2021/11/03 05:12:39;;;;;;;2.47;2.38;;;16.90;63.90;;;;;;5051811;28;20634;-64
2021/11/03 05:15:05;;;;;;;2.50;2.30;;;16.80;63.60;;;;;;5052650;28;20250;-65
2021/11/03 05:17:30;;;;;;;2.53;2.42;;;16.80;63.80;;;;;;5052263;28;20176;-65
2021/11/03 05:19:56;;;;;;;2.33;2.22;;;16.80;63.70;;;;;;5051768;28;20174;-64
2021/11/03 05:22:26;;;;;;;2.70;2.50;;;16.80;63.80;;;;;;5052615;28;20175;-63
2021/11/03 05:24:53;;;;;;;2.58;2.40;;;16.80;64.70;;;;;;5049908;28;20191;-63
2021/11/03 05:27:18;;;;;;;2.40;2.30;;;16.80;63.80;;;;;;5051732;28;20265;-63
2021/11/03 05:29:44;;;;;;;2.80;2.60;;;16.80;63.80;;;;;;5052136;28;20197;-64
2021/11/03 05:32:09;;;;;;;2.45;2.33;;;16.80;63.70;;;;;;5052321;28;20174;-63
2021/11/03 05:34:35;;;;;;;2.45;2.25;;;16.80;63.70;;;;;;5051511;28;20585;-62
2021/11/03 05:37:00;;;;;;;2.90;2.70;;;16.80;63.80;;;;;;5052704;28;20191;-62
2021/11/03 05:39:26;;;;;;;2.83;2.63;;;16.70;63.80;;;;;;5052682;28;20187;-63
2021/11/03 05:41:51;;;;;;;2.40;2.20;;;16.80;63.80;;;;;;5051165;28;20535;-63
2021/11/03 05:44:18;;;;;;;2.20;2.10;;;16.80;63.10;;;;;;5051624;28;20230;-64
2021/11/03 05:46:45;;;;;;;2.80;2.60;;;16.70;63.80;;;;;;5051716;28;20272;-62
2021/11/03 05:49:14;;;;;;;2.65;2.45;;;16.80;63.90;;;;;;5051561;28;20317;-64
2021/11/03 05:51:40;;;;;;;2.58;2.40;;;16.70;63.80;;;;;;5051716;28;20224;-63
2021/11/03 05:54:06;;;;;;;2.80;2.60;;;16.80;63.80;;;;;;5052213;28;20264;-64
2021/11/03 05:56:32;;;;;;;2.55;2.35;;;16.80;63.90;;;;;;5051055;28;20641;-64
2021/11/03 05:58:59;;;;;;;2.60;2.40;;;16.70;63.80;;;;;;5052111;28;20183;-64
2021/11/03 06:01:24;;;;;;;2.55;2.35;;;16.70;63.90;;;;;;5051947;28;20186;-63
2021/11/03 06:03:52;;;;;;;2.60;2.40;;;16.70;63.80;;;;;;5051020;28;20163;-62
2021/11/03 06:06:18;;;;;;;2.42;2.33;;;16.80;63.80;;;;;;5051876;28;20245;-62
2021/11/03 06:08:44;;;;;;;2.28;2.17;;;16.80;64.20;;;;;;5051443;28;20175;-63
2021/11/03 06:11:11;;;;;;;2.35;2.25;;;16.90;64.50;;;;;;5051322;28;20167;-63
2021/11/03 06:13:38;;;;;;;2.22;2.03;;;17.10;63.70;;;;;;5051395;28;20183;-65
2021/11/03 06:16:04;;;;;;;2.30;2.10;;;17.20;63.60;;;;;;5050983;28;20199;-65
2021/11/03 06:18:29;;;;;;;2.10;2.00;;;17.40;63.20;;;;;;5051668;28;20582;-64
2021/11/03 06:20:55;;;;;;;1.70;1.60;;;17.60;62.80;;;;;;5051891;28;20194;-64
2021/11/03 06:23:20;;;;;;;1.98;1.88;;;17.90;62.30;;;;;;5050815;28;20586;-63
2021/11/03 06:25:46;;;;;;;2.15;2.05;;;18.10;61.80;;;;;;5051316;28;20171;-63
2021/11/03 06:28:14;;;;;;;1.95;1.85;;;18.20;61.40;;;;;;5051625;28;20215;-64
2021/11/03 06:30:40;;;;;;;2.20;2.10;;;18.30;61.10;;;;;;5050725;28;20178;-62
2021/11/03 06:33:06;;;;;;;1.90;1.80;;;18.50;60.80;;;;;;5051513;28;20179;-62
2021/11/03 06:35:33;;;;;;;1.85;1.75;;;18.60;60.10;;;;;;5051581;28;20183;-62
2021/11/03 06:37:59;;;;;;;1.70;1.60;;;18.70;59.90;;;;;;5050764;28;20240;-63
2021/11/03 06:40:25;;;;;;;1.80;1.70;;;18.70;59.80;;;;;;5051470;28;20593;-62
2021/11/03 06:42:51;;;;;;;1.63;1.52;;;18.80;59.70;;;;;;5051183;28;20183;-61
2021/11/03 06:45:18;;;;;;;1.90;1.80;;;18.90;59.70;;;;;;5050592;28;20762;-62
2021/11/03 06:47:43;;;;;;;1.70;1.60;;;18.90;59.70;;;;;;5051284;28;20317;-62
2021/11/03 06:50:09;;;;;;;1.90;1.80;;;18.90;59.70;;;;;;5051585;28;20271;-63
2021/11/03 06:52:37;;;;;;;2.72;1.80;;;18.90;59.60;;;;;;5049277;28;20187;-62
2021/11/03 06:55:03;;;;;;;2.13;1.95;;;18.90;59.60;;;;;;5052114;28;20186;-64
2021/11/03 06:57:28;;;;;;;1.80;1.70;;;18.90;59.60;;;;;;5054909;28;20179;-63
2021/11/03 06:59:59;;;;;;;1.90;1.80;;;18.90;59.70;;;;;;5054585;28;20171;-63
2021/11/03 07:02:25;;;;;;;1.70;1.60;;;18.90;59.70;;;;;;5055273;28;20254;-62
2021/11/03 07:04:51;;;;;;;1.80;1.70;;;18.80;59.80;;;;;;5054940;28;20525;-61
2021/11/03 07:07:16;;;;;;;1.90;1.80;;;18.70;60.00;;;;;;5054547;28;20217;-62
2021/11/03 07:09:42;;;;;;;1.65;1.55;;;18.60;60.20;;;;;;5054952;28;20167;-62
2021/11/03 07:12:08;;;;;;;1.85;1.75;;;18.60;60.40;;;;;;5054105;28;20202;-64
2021/11/03 07:14:33;;;;;;;1.80;1.70;;;18.50;60.60;;;;;;5054828;28;20568;-64
2021/11/03 07:16:59;;;;;;;2.05;1.85;;;18.40;60.90;;;;;;5055119;28;20175;-64
2021/11/03 07:19:24;;;;;;;1.58;1.48;;;18.30;61.00;;;;;;5054331;28;20167;-64
2021/11/03 07:21:50;;;;;;;1.98;1.88;;;18.30;61.30;;;;;;5054526;28;20175;-63
2021/11/03 07:24:15;;;;;;;1.65;1.55;;;18.20;61.50;;;;;;5054846;28;20536;-64
2021/11/03 07:26:42;;;;;;;1.90;1.80;;;18.10;61.70;;;;;;5053551;28;20206;-63
2021/11/03 07:29:08;;;;;;;2.15;1.67;;;18.00;61.80;;;;;;5055006;28;20171;-62
2021/11/03 07:31:33;;;;;;;1.58;1.48;;;18.00;62.00;;;;;;5054654;28;20183;-63
2021/11/03 07:33:59;;;;;;;2.05;1.95;;;17.90;62.10;;;;;;5054024;28;20167;-63
2021/11/03 07:36:24;;;;;;;1.50;1.40;;;17.90;62.30;;;;;;5054963;28;20171;-62
2021/11/03 07:38:50;;;;;;;2.28;2.17;;;17.80;62.30;;;;;;5054413;28;20174;-62
2021/11/03 07:41:16;;;;;;;2.08;1.98;;;17.90;62.40;;;;;;5053761;28;20209;-63
2021/11/03 07:43:43;;;;;;;1.90;1.80;;;17.90;62.40;;;;;;5054003;28;20227;-63
2021/11/03 07:46:09;;;;;;;1.80;1.70;;;17.90;62.30;;;;;;5054241;28;20183;-63
2021/11/03 07:48:34;;;;;;;1.80;1.50;;;17.90;62.20;;;;;;5053485;28;20246;-62
2021/11/03 07:51:02;;;;;;;1.60;1.50;;;18.00;62.20;;;;;;5054369;28;20638;-62
2021/11/03 07:53:28;;;;;;;1.80;1.70;;;18.00;62.00;;;;;;5054265;28;20526;-71
2021/11/03 07:55:58;;;;;;;2.63;2.05;;;18.10;61.90;;;;;;5053458;28;20187;-65
2021/11/03 07:58:24;;;;;;;2.30;1.85;;;18.10;62.10;;;;;;5054259;28;20262;-65
2021/11/03 08:00:50;;;;;;;2.10;1.95;;;18.00;62.10;;;;;;5054277;28;20209;-67
2021/11/03 08:03:16;;;;;;;5.13;2.22;;;18.00;62.20;;;;;;5053396;28;20171;-67
2021/11/03 08:05:41;;;;;;;2.85;1.98;;;17.90;62.40;;;;;;5053559;28;20181;-65
2021/11/03 08:08:12;;;;;;;2.25;2.15;;;18.00;62.60;;;;;;5053872;28;20207;-70
2021/11/03 08:10:38;;;;;;;4.03;2.28;;;18.00;62.60;;;;;;5052838;28;20183;-68
2021/11/03 08:13:05;;;;;;;4.05;2.00;;;18.00;62.70;;;;;;5053833;28;20633;-66
2021/11/03 08:15:30;;;;;;;7.43;2.75;;;18.00;62.80;;;;;;5052891;28;20185;-68
2021/11/03 08:17:56;;;;;;;4.90;2.03;;;18.10;62.80;;;;;;5053802;28;20187;-65
2021/11/03 08:20:24;;;;;;;4.45;2.42;;;18.20;62.70;;;;;;5053724;28;20587;-66
2021/11/03 08:22:50;;;;;;;2.65;1.98;;;18.20;62.60;;;;;;5051475;28;20179;-64
2021/11/03 08:25:15;;;;;;;4.78;2.60;;;18.10;62.50;;;;;;5053914;28;20550;-64
2021/11/03 08:27:41;;;;;;;7.85;2.47;;;18.10;62.60;;;;;;5053411;28;20241;-64
2021/11/03 08:30:07;;;;;;;3.45;2.60;;;18.10;62.70;;;;;;5052948;28;20201;-64
2021/11/03 08:32:36;;;;;;;3.72;2.33;;;18.00;62.70;;;;;;5053056;28;20214;-68
2021/11/03 08:35:01;;;;;;;6.03;2.55;;;18.00;62.70;;;;;;5052192;28;20219;-69
2021/11/03 08:37:30;;;;;;;4.03;2.50;;;18.10;63.90;;;;;;5052664;28;20680;-69
2021/11/03 08:39:55;;;;;;;3.53;2.28;;;18.20;62.80;;;;;;5053710;28;20515;-69
2021/11/03 08:42:21;;;;;;;2.45;2.25;;;18.20;62.70;;;;;;5052149;28;20638;-67
2021/11/03 08:44:48;;;;;;;2.13;1.92;;;18.30;62.60;;;;;;5052373;28;20700;-67
2021/11/03 08:47:14;;;;;;;4.10;2.58;;;18.30;62.40;;;;;;5053557;28;20207;-66
2021/11/03 08:49:39;;;;;;;4.50;2.35;;;18.30;62.50;;;;;;5053069;28;20229;-67
2021/11/03 08:52:05;;;;;;;6.82;2.38;;;18.30;62.50;;;;;;5052413;28;20170;-64
2021/11/03 08:54:38;;;;;;;3.90;2.28;;;18.30;62.70;;;;;;5053052;28;20172;-67
2021/11/03 08:57:04;;;;;;;5.30;2.63;;;18.20;62.80;;;;;;5053292;28;20179;-66
2021/11/03 08:59:29;;;;;;;4.13;2.72;;;18.30;62.80;;;;;;5052144;28;20171;-67
2021/11/03 09:01:55;;;;;;;7.75;2.85;;;18.20;63.20;;;;;;5052955;28;20175;-66
2021/11/03 09:04:20;;;;;;;4.80;2.08;;;18.10;63.40;;;;;;5053046;28;20171;-66
2021/11/03 09:06:46;;;;;;;4.65;2.13;;;18.20;63.20;;;;;;5051838;28;20206;-67
2021/11/03 09:09:11;;;;;;;3.85;2.15;;;18.20;63.10;;;;;;5052955;28;20177;-68
2021/11/03 09:11:37;;;;;;;3.40;2.13;;;18.30;63.30;;;;;;5052318;28;20651;-67
2021/11/03 09:14:02;;;;;;;5.13;2.10;;;18.30;63.20;;;;;;5052402;28;20261;-67
2021/11/03 09:16:28;;;;;;;5.63;2.45;;;18.20;63.10;;;;;;5052719;28;20174;-67
2021/11/03 09:18:54;;;;;;;4.22;2.60;;;18.20;63.20;;;;;;5051406;28;20598;-67
2021/11/03 09:21:21;;;;;;;5.43;2.42;;;18.20;63.20;;;;;;5052445;28;20167;-67
2021/11/03 09:23:47;;;;;;;4.43;2.38;;;18.10;63.20;;;;;;5052496;28;20193;-66
2021/11/03 09:26:13;;;;;;;3.25;1.80;;;18.00;63.20;;;;;;5051972;28;20259;-66
2021/11/03 09:28:40;;;;;;;3.60;2.20;;;18.00;63.30;;;;;;5052370;28;20270;-67
2021/11/03 09:31:06;;;;;;;3.78;2.50;;;18.00;63.30;;;;;;5052521;28;20207;-68
2021/11/03 09:33:36;;;;;;;6.13;2.30;;;18.00;63.40;;;;;;5051442;28;20662;-69
2021/11/03 09:36:02;;;;;;;6.25;2.67;;;17.90;63.40;;;;;;5052222;28;20593;-64
2021/11/03 09:38:28;;;;;;;6.53;2.50;;;17.90;63.50;;;;;;5052855;28;20261;-64
2021/11/03 09:41:01;;;;;;;4.80;2.40;;;17.80;63.50;;;;;;5052171;28;20590;-67
2021/11/03 09:44:06;;;;;;;4.10;2.78;;;17.80;63.70;;;;;;5052035;28;20645;-66
2021/11/03 09:46:40;;;;;;;6.25;2.80;;;17.80;64.00;;;;;;5017926;28;20585;-66
2021/11/03 09:49:31;;;;;;;4.25;2.60;;;17.80;64.10;;;;;;5050197;28;20181;-66
2021/11/03 09:52:04;;;;;;;5.22;2.75;;;17.80;64.20;;;;;;5050880;28;20623;-67
2021/11/03 09:54:33;;;;;;;4.60;2.38;;;17.80;64.20;;;;;;5049677;28;20175;-68
2021/11/03 09:56:59;;;;;;;3.15;2.42;;;17.80;64.10;;;;;;5052132;28;20255;-67
2021/11/03 09:59:43;;;;;;;4.53;2.50;;;17.90;64.20;;;;;;5051011;28;20257;-67
2021/11/03 10:02:21;;;;;;;6.95;2.28;;;17.90;64.10;;;;;;5051311;28;20676;-65
2021/11/03 10:05:05;;;;;;;3.90;2.55;;;17.90;64.10;;;;;;5050484;28;20472;-66
2021/11/03 10:07:42;;;;;;;3.17;2.38;;;18.00;64.10;;;;;;5051588;28;20743;-66
2021/11/03 10:10:42;;;;;;;4.22;2.75;;;18.00;64.00;;;;;;5050121;28;20181;-66
2021/11/03 10:13:24;;;;;;;4.35;2.60;;;18.00;64.00;;;;;;5051445;28;20178;-66
2021/11/03 10:16:11;;;;;;;3.97;2.70;;;18.00;64.10;;;;;;5050968;28;20175;-66
2021/11/03 10:18:38;;;;;;;3.78;2.70;;;17.90;64.10;;;;;;5051637;28;20179;-67
2021/11/03 10:21:17;;;;;;;3.53;2.20;;;17.90;64.30;;;;;;5051821;28;20194;-65
2021/11/03 10:23:55;;;;;;;3.00;2.70;;;17.90;64.30;;;;;;5050675;28;20661;-66
2021/11/03 10:26:21;;;;;;;6.80;2.75;;;17.90;64.30;;;;;;5051963;28;20237;-66
2021/11/03 10:28:49;;;;;;;4.57;2.50;;;17.90;64.40;;;;;;5051716;28;20175;-67
2021/11/03 10:31:30;;;;;;;2.40;2.05;;;17.90;64.40;;;;;;5053902;28;20265;-67
2021/11/03 10:34:04;;;;;;;2.92;2.25;;;17.90;64.40;;;;;;5055884;28;20183;-68
2021/11/03 10:36:42;;;;;;;7.78;2.40;;;17.90;64.40;;;;;;5054556;28;20175;-67
2021/11/03 10:39:20;;;;;;;4.32;2.30;;;17.90;64.50;;;;;;5055600;28;20179;-66
2021/11/03 10:42:01;;;;;;;4.65;2.58;;;17.90;64.50;;;;;;5055457;28;20179;-66
2021/11/03 10:44:28;;;;;;;2.70;2.25;;;17.80;64.50;;;;;;5054578;28;20245;-66
2021/11/03 10:46:56;;;;;;;2.38;2.17;;;17.80;64.50;;;;;;5055550;28;20219;-66
2021/11/03 10:49:45;;;;;;;3.33;2.38;;;17.80;64.60;;;;;;5055520;28;20205;-66
2021/11/03 10:52:46;;;;;;;2.42;2.22;;;17.80;64.60;;;;;;5054419;28;20245;-66
2021/11/03 10:55:31;;;;;;;2.42;2.22;;;17.90;64.50;;;;;;5040496;28;20191;-66
2021/11/03 10:58:20;;;;;;;2.85;2.13;;;17.90;64.30;;;;;;5053244;28;20179;-66
2021/11/03 11:01:13;;;;;;;3.17;2.50;;;18.00;64.30;;;;;;5040340;28;20187;-66
2021/11/03 11:03:50;;;;;;;2.80;2.30;;;18.00;64.10;;;;;;5055197;28;20325;-65
2021/11/03 11:06:22;;;;;;;2.58;2.22;;;17.90;64.10;;;;;;5053258;28;20178;-68
2021/11/03 11:08:55;;;;;;;5.57;2.58;;;17.90;64.10;;;;;;5053556;28;20179;-68
2021/11/03 11:11:23;;;;;;;5.00;2.67;;;17.90;64.30;;;;;;5054495;28;20171;-67
2021/11/03 11:13:57;;;;;;;2.65;1.98;;;17.90;64.20;;;;;;5054703;28;20187;-67
2021/11/03 11:16:30;;;;;;;5.22;2.60;;;17.80;64.30;;;;;;5055163;28;20175;-67
2021/11/03 11:18:58;;;;;;;4.20;2.30;;;17.90;64.40;;;;;;5053269;28;20631;-67
2021/11/03 11:21:35;;;;;;;5.78;2.50;;;17.90;64.30;;;;;;5054728;28;20182;-68
2021/11/03 11:24:08;;;;;;;3.47;2.47;;;17.90;64.20;;;;;;5054726;28;20577;-68
2021/11/03 11:26:38;;;;;;;4.40;2.70;;;17.80;64.00;;;;;;5053497;28;20645;-67
2021/11/03 11:29:19;;;;;;;5.00;2.50;;;17.80;64.00;;;;;;5053670;28;20175;-69
2021/11/03 11:31:49;;;;;;;4.63;3.10;;;17.90;64.20;;;;;;5053167;28;20212;-68
2021/11/03 11:34:34;;;;;;;4.22;2.90;;;17.80;64.10;;;;;;5052819;28;20175;-70
2021/11/03 11:37:06;;;;;;;2.97;2.35;;;17.80;64.00;;;;;;5053703;28;20206;-70
2021/11/03 11:39:39;;;;;;;4.85;2.50;;;17.80;64.00;;;;;;5052330;28;20586;-69
2021/11/03 11:42:12;;;;;;;5.65;2.30;;;17.80;64.00;;;;;;5052671;28;20183;-69
2021/11/03 11:44:59;;;;;;;4.35;2.80;;;17.80;64.00;;;;;;5052697;28;20574;-69
2021/11/03 11:47:46;;;;;;;3.92;2.35;;;17.90;63.70;;;;;;5052372;28;20257;-68
2021/11/03 11:50:35;;;;;;;5.53;2.25;;;18.00;63.60;;;;;;5053065;28;20258;-69
2021/11/03 11:53:00;;;;;;;3.92;2.58;;;18.00;63.60;;;;;;5053113;28;20189;-66
2021/11/03 11:55:32;;;;;;;3.28;2.63;;;17.90;63.50;;;;;;5053419;28;20168;-69
2021/11/03 11:58:10;;;;;;;3.58;2.60;;;17.90;63.70;;;;;;5054189;28;20187;-68
2021/11/03 12:00:36;;;;;;;2.80;2.40;;;17.90;63.80;;;;;;5053148;28;20183;-68
2021/11/03 12:03:14;;;;;;;4.05;2.47;;;17.90;63.80;;;;;;5054167;28;20196;-67
2021/11/03 12:05:43;;;;;;;2.75;2.53;;;17.90;63.80;;;;;;5053646;28;20179;-69
2021/11/03 12:08:08;;;;;;;3.63;2.33;;;17.90;64.00;;;;;;5053429;28;20230;-69
2021/11/03 12:10:36;;;;;;;3.97;2.53;;;17.90;64.00;;;;;;5053797;28;20189;-68
2021/11/03 12:13:04;;;;;;;4.68;3.00;;;17.90;63.80;;;;;;5054051;28;20175;-69
2021/11/03 12:15:49;;;;;;;5.60;2.65;;;17.90;63.70;;;;;;5052942;28;20186;-68
2021/11/03 12:18:20;;;;;;;4.18;2.55;;;17.90;63.70;;;;;;5053746;28;20179;-68
2021/11/03 12:21:15;;;;;;;6.15;2.85;;;17.90;63.70;;;;;;5053537;28;20197;-69
2021/11/03 12:23:59;;;;;;;3.40;2.38;;;17.90;63.70;;;;;;5046074;28;20298;-69
2021/11/03 12:26:25;;;;;;;6.53;2.50;;;17.90;63.90;;;;;;5053535;28;20179;-71
2021/11/03 12:28:57;;;;;;;3.20;2.38;;;17.90;64.00;;;;;;5052408;28;20441;-72
2021/11/03 12:31:28;;;;;;;4.97;2.80;;;17.90;64.00;;;;;;5053721;28;20172;-72
2021/11/03 12:34:03;;;;;;;2.75;2.55;;;17.90;64.00;;;;;;5052489;28;20175;-71
2021/11/03 12:36:31;;;;;;;4.32;2.90;;;17.90;64.00;;;;;;5052429;28;20228;-71
2021/11/03 12:38:59;;;;;;;3.38;2.78;;;17.90;64.00;;;;;;5053226;28;20588;-67
2021/11/03 12:41:38;;;;;;;4.85;2.47;;;17.90;63.80;;;;;;5053251;28;20175;-68
2021/11/03 12:44:08;;;;;;;4.68;3.03;;;17.90;63.80;;;;;;5052794;28;20284;-73
2021/11/03 12:46:33;;;;;;;6.25;2.65;;;17.90;63.80;;;;;;5051496;28;20286;-68
2021/11/03 12:48:59;;;;;;;4.93;2.97;;;17.90;63.80;;;;;;5052047;28;20266;-65
2021/11/03 12:51:27;;;;;;;11.20;3.08;;;17.90;63.90;;;;;;5052559;28;20178;-68
2021/11/03 12:54:02;;;;;;;8.52;2.90;;;17.90;64.00;;;;;;5051835;28;20514;-68
2021/11/03 12:56:29;;;;;;;4.85;2.60;;;17.80;64.00;;;;;;5053303;28;20198;-67